Time;durP1;ratioP1;P1;durP2;ratioP2;P2;SDS_P1;SDS_P2;PMS_P1;PMS_P2;Temp;Humidity;BMP_temperature;BMP_pressure;BME280_temperature;BME280_humidity;BME280_pressure;Samples;Min_cycle;Max_cycle;Signal;HPM_P1;HPM_P2
2021/08/27 00:00:35;;;;;;;2.53;1.15;;;24.60;60.50;;;;;;5082381;28;20616;-36
2021/08/27 00:03:01;;;;;;;1.80;0.80;;;24.60;60.70;;;;;;5082363;28;20032;-36
2021/08/27 00:05:27;;;;;;;1.63;0.95;;;24.60;60.70;;;;;;5082307;28;20044;-36
2021/08/27 00:07:54;;;;;;;2.33;1.00;;;24.60;61.00;;;;;;5082709;28;20055;-36
2021/08/27 00:10:20;;;;;;;1.88;1.05;;;24.60;61.00;;;;;;5082233;28;20870;-37
2021/08/27 00:12:46;;;;;;;1.25;0.82;;;24.60;61.20;;;;;;5082304;28;20036;-36
2021/08/27 00:15:12;;;;;;;1.15;0.82;;;24.70;61.30;;;;;;5082178;28;20016;-36
2021/08/27 00:17:38;;;;;;;1.10;0.80;;;24.70;61.40;;;;;;5082167;28;20047;-36
2021/08/27 00:20:06;;;;;;;1.23;0.85;;;24.70;61.30;;;;;;5082578;28;20020;-36
2021/08/27 00:22:32;;;;;;;0.93;0.80;;;24.70;61.40;;;;;;5082338;28;20116;-36
2021/08/27 00:24:58;;;;;;;1.98;0.95;;;24.70;61.40;;;;;;5081930;28;20032;-36
2021/08/27 00:27:24;;;;;;;2.33;0.82;;;24.80;61.60;;;;;;5082197;28;20028;-36
2021/08/27 00:29:50;;;;;;;1.20;0.90;;;24.80;61.60;;;;;;5081925;28;20027;-36
2021/08/27 00:32:17;;;;;;;1.00;0.90;;;24.80;61.70;;;;;;5082306;28;20021;-39
2021/08/27 00:34:43;;;;;;;2.00;0.88;;;24.80;61.70;;;;;;5063993;28;20041;-36
2021/08/27 00:37:09;;;;;;;1.70;0.93;;;24.80;61.60;;;;;;5081963;28;20040;-36
2021/08/27 00:39:35;;;;;;;1.67;0.90;;;24.80;61.80;;;;;;5081902;28;20522;-36
2021/08/27 00:42:01;;;;;;;1.73;0.90;;;24.80;61.90;;;;;;5081817;28;20035;-37
2021/08/27 00:44:27;;;;;;;1.75;1.00;;;24.80;61.90;;;;;;5082047;28;20040;-36
2021/08/27 00:46:54;;;;;;;1.38;1.17;;;24.80;62.00;;;;;;5062868;28;20032;-36
2021/08/27 00:49:20;;;;;;;1.83;0.90;;;24.80;62.20;;;;;;5062027;28;20025;-36
2021/08/27 00:51:46;;;;;;;1.33;0.88;;;24.80;62.10;;;;;;5065146;28;20035;-36
2021/08/27 00:54:12;;;;;;;1.23;1.10;;;24.90;62.30;;;;;;5061641;28;20072;-36
2021/08/27 00:56:38;;;;;;;2.43;0.90;;;24.90;62.30;;;;;;5035302;28;20825;-36
2021/08/27 00:59:04;;;;;;;1.55;0.88;;;24.90;62.30;;;;;;5081883;28;20078;-36
2021/08/27 01:01:30;;;;;;;1.83;1.15;;;24.90;62.30;;;;;;5085563;28;20052;-35
2021/08/27 01:03:57;;;;;;;1.13;0.90;;;24.90;62.30;;;;;;5085824;28;20035;-36
2021/08/27 01:06:41;;;;;;;1.67;1.02;;;24.90;62.30;;;;;;5050901;28;20090;-36
2021/08/27 01:09:13;;;;;;;1.48;0.90;;;25.00;62.50;;;;;;5085682;28;20029;-35
2021/08/27 01:11:46;;;;;;;1.58;1.00;;;25.00;62.60;;;;;;5051444;28;20455;-35
2021/08/27 01:14:26;;;;;;;1.98;0.90;;;25.00;62.70;;;;;;5051269;28;20094;-36
2021/08/27 01:17:07;;;;;;;1.73;1.10;;;25.00;62.80;;;;;;5051115;28;20040;-36
2021/08/27 01:20:09;;;;;;;1.63;0.98;;;25.00;62.80;;;;;;5085450;28;20111;-36
2021/08/27 01:23:07;;;;;;;1.13;0.93;;;25.00;62.80;;;;;;4980532;28;20031;-36
2021/08/27 01:25:35;;;;;;;0.60;0.60;;;25.00;62.90;;;;;;4967589;28;20038;-36
2021/08/27 01:28:02;;;;;;;1.40;0.80;;;25.00;62.80;;;;;;4933009;28;20031;-36
2021/08/27 01:31:06;;;;;;;2.03;1.00;;;25.00;62.90;;;;;;4983231;28;20066;-35
2021/08/27 01:33:32;;;;;;;2.45;1.08;;;25.00;63.00;;;;;;4979829;28;20043;-36
2021/08/27 01:36:00;;;;;;;2.05;1.33;;;25.00;63.00;;;;;;4983149;28;20035;-35
2021/08/27 01:38:32;;;;;;;1.42;1.00;;;25.00;63.00;;;;;;4983300;28;20046;-36
2021/08/27 01:40:58;;;;;;;3.60;1.40;;;25.00;63.00;;;;;;4983358;28;20117;-36
2021/08/27 01:43:25;;;;;;;2.05;1.20;;;25.10;63.10;;;;;;4983209;28;20037;-35
2021/08/27 01:45:52;;;;;;;3.25;1.30;;;25.00;63.00;;;;;;4982215;28;20034;-35
2021/08/27 01:48:18;;;;;;;3.30;1.30;;;25.10;63.10;;;;;;4983093;28;20034;-35
2021/08/27 01:50:44;;;;;;;2.30;1.33;;;25.10;63.10;;;;;;4983099;28;20039;-36
2021/08/27 01:53:11;;;;;;;1.15;1.00;;;25.00;63.10;;;;;;4982952;28;20058;-36
2021/08/27 01:55:38;;;;;;;1.65;1.15;;;25.10;63.20;;;;;;4991327;28;20035;-35
2021/08/27 01:58:04;;;;;;;2.40;1.17;;;25.10;63.20;;;;;;5047034;28;20053;-36
2021/08/27 02:00:30;;;;;;;1.90;1.27;;;25.10;63.20;;;;;;5063548;28;20071;-36
2021/08/27 02:02:57;;;;;;;3.05;1.17;;;25.10;63.20;;;;;;5049945;28;20507;-36
2021/08/27 02:05:24;;;;;;;1.92;1.20;;;25.10;63.40;;;;;;5084605;28;20098;-36
2021/08/27 02:07:50;;;;;;;2.40;1.40;;;25.10;63.30;;;;;;5066367;28;20056;-35
2021/08/27 02:10:17;;;;;;;2.45;1.20;;;25.10;63.30;;;;;;5049927;28;20025;-35
2021/08/27 02:12:43;;;;;;;4.20;1.30;;;25.10;63.40;;;;;;5065660;28;20523;-35
2021/08/27 02:15:09;;;;;;;2.20;1.30;;;25.10;63.40;;;;;;5084417;28;20091;-35
2021/08/27 02:17:35;;;;;;;1.50;1.00;;;25.10;63.40;;;;;;5083967;28;20032;-37
2021/08/27 02:20:02;;;;;;;2.92;1.38;;;25.10;63.40;;;;;;5066477;28;20032;-35
2021/08/27 02:22:29;;;;;;;2.20;1.23;;;25.10;63.40;;;;;;5084200;28;20098;-36
2021/08/27 02:25:03;;;;;;;1.55;1.10;;;25.10;63.40;;;;;;5049627;28;20020;-36
2021/08/27 02:27:31;;;;;;;2.80;1.48;;;25.10;63.40;;;;;;5045823;28;20033;-35
2021/08/27 02:29:57;;;;;;;2.22;1.33;;;25.10;63.40;;;;;;5080288;28;20025;-36
2021/08/27 02:32:24;;;;;;;3.10;1.50;;;25.10;63.40;;;;;;5049534;28;20028;-36
2021/08/27 02:34:50;;;;;;;2.72;1.33;;;25.10;63.40;;;;;;5066108;28;20048;-36
2021/08/27 02:37:23;;;;;;;2.03;1.20;;;25.10;63.40;;;;;;5065594;28;20527;-36
2021/08/27 02:39:49;;;;;;;2.20;1.15;;;25.10;63.50;;;;;;5065796;28;20033;-36
2021/08/27 02:42:16;;;;;;;2.17;1.20;;;25.10;63.50;;;;;;5083713;28;20021;-36
2021/08/27 02:44:42;;;;;;;1.65;1.17;;;25.10;63.50;;;;;;5083729;28;20058;-35
2021/08/27 02:47:08;;;;;;;2.25;1.33;;;25.20;63.70;;;;;;5083396;28;20107;-35
2021/08/27 02:49:35;;;;;;;2.37;1.20;;;25.20;63.60;;;;;;5083683;28;20040;-36
2021/08/27 02:52:07;;;;;;;;;;;25.20;63.70;;;;;;5045840;28;20048;-36
2021/08/27 02:54:37;;;;;;;2.58;1.20;;;25.10;63.50;;;;;;5045240;28;19955;-36
2021/08/27 02:57:04;;;;;;;2.33;1.42;;;25.20;63.60;;;;;;5040535;28;20040;-39
2021/08/27 02:59:31;;;;;;;2.50;1.33;;;25.20;63.70;;;;;;5052568;28;20031;-35
2021/08/27 03:01:58;;;;;;;1.73;1.27;;;25.10;63.60;;;;;;5045334;28;20100;-36
2021/08/27 03:04:43;;;;;;;1.85;1.35;;;25.10;63.60;;;;;;5028976;28;20463;-36
2021/08/27 03:07:11;;;;;;;2.10;1.17;;;25.10;64.40;;;;;;5063032;28;20033;-36
2021/08/27 03:10:02;;;;;;;2.10;1.30;;;25.10;63.60;;;;;;5063180;28;20033;-36
2021/08/27 03:12:56;;;;;;;2.10;1.00;;;25.20;63.80;;;;;;5063008;28;20046;-36
2021/08/27 03:15:31;;;;;;;3.42;1.40;;;25.10;63.70;;;;;;5037912;28;20037;-36
2021/08/27 03:18:02;;;;;;;2.22;1.23;;;25.10;63.80;;;;;;5062841;28;20041;-36
2021/08/27 03:20:36;;;;;;;3.95;1.50;;;25.10;63.80;;;;;;5045552;28;20027;-36
2021/08/27 03:23:04;;;;;;;1.90;1.55;;;25.10;63.80;;;;;;5029105;28;20025;-35
2021/08/27 03:25:31;;;;;;;1.80;1.20;;;25.10;63.80;;;;;;5029425;28;20017;-35
2021/08/27 03:28:03;;;;;;;2.53;1.27;;;25.10;63.80;;;;;;5045584;28;20036;-36
2021/08/27 03:30:29;;;;;;;3.78;1.45;;;25.10;63.80;;;;;;5044725;28;20043;-36
2021/08/27 03:33:02;;;;;;;2.33;1.40;;;25.10;63.80;;;;;;5062817;28;20029;-36
2021/08/27 03:35:28;;;;;;;3.72;1.75;;;25.10;63.80;;;;;;5044957;28;20040;-36
2021/08/27 03:37:55;;;;;;;3.07;1.40;;;25.10;63.90;;;;;;5044579;28;20037;-36
2021/08/27 03:40:21;;;;;;;2.97;1.30;;;25.10;63.90;;;;;;5062733;28;20033;-36
2021/08/27 03:42:47;;;;;;;1.97;1.10;;;25.10;63.90;;;;;;5062401;28;20549;-36
2021/08/27 03:45:14;;;;;;;2.47;1.40;;;25.10;63.90;;;;;;5049670;28;20025;-35
2021/08/27 03:47:40;;;;;;;2.10;1.53;;;25.10;63.90;;;;;;5064591;28;20273;-35
2021/08/27 03:50:08;;;;;;;3.88;1.25;;;25.10;63.90;;;;;;5064459;28;20096;-36
2021/08/27 03:52:34;;;;;;;1.75;1.50;;;25.10;63.90;;;;;;5064478;28;20048;-36
2021/08/27 03:55:01;;;;;;;3.65;1.40;;;25.10;63.90;;;;;;5047919;28;20025;-35
2021/08/27 03:57:27;;;;;;;1.92;1.38;;;25.10;64.00;;;;;;5049504;28;20052;-36
2021/08/27 03:59:53;;;;;;;2.67;1.60;;;25.10;63.90;;;;;;5077964;28;20039;-36
2021/08/27 04:02:19;;;;;;;1.60;1.17;;;25.00;63.80;;;;;;5082430;28;20082;-36
2021/08/27 04:04:45;;;;;;;2.47;1.50;;;25.10;63.90;;;;;;5079386;28;20052;-35
2021/08/27 04:07:11;;;;;;;3.33;1.80;;;25.10;63.90;;;;;;5082151;28;20029;-36
2021/08/27 04:09:38;;;;;;;4.90;1.73;;;25.10;63.90;;;;;;5082318;28;20046;-35
2021/08/27 04:12:05;;;;;;;2.42;1.70;;;25.00;63.80;;;;;;5082431;28;20029;-36
2021/08/27 04:14:31;;;;;;;1.88;1.42;;;25.10;63.90;;;;;;5082470;28;20112;-35
2021/08/27 04:17:02;;;;;;;2.10;1.70;;;25.10;63.90;;;;;;5082159;28;20036;-36
2021/08/27 04:19:28;;;;;;;2.88;2.05;;;25.10;64.00;;;;;;5082104;28;20031;-35
2021/08/27 04:21:54;;;;;;;4.07;1.80;;;25.10;64.00;;;;;;5082315;28;20064;-36
2021/08/27 04:24:20;;;;;;;3.65;2.38;;;25.10;64.00;;;;;;5082347;28;20025;-36
2021/08/27 04:26:46;;;;;;;4.17;2.40;;;25.10;64.00;;;;;;5082231;28;20031;-36
2021/08/27 04:29:14;;;;;;;3.05;1.85;;;25.10;64.20;;;;;;5071314;28;20087;-36
2021/08/27 04:31:40;;;;;;;2.35;1.90;;;25.00;64.00;;;;;;5062088;28;20033;-36
2021/08/27 04:34:06;;;;;;;6.13;2.22;;;25.00;64.00;;;;;;5062150;28;20021;-36
2021/08/27 04:36:32;;;;;;;3.92;2.00;;;25.00;63.90;;;;;;5066008;28;20124;-36
2021/08/27 04:38:59;;;;;;;3.72;2.15;;;25.10;64.00;;;;;;5065951;28;20033;-36
2021/08/27 04:41:25;;;;;;;5.72;2.30;;;25.00;64.00;;;;;;5066132;28;20029;-36
2021/08/27 04:43:51;;;;;;;4.38;2.00;;;25.00;63.90;;;;;;5066087;28;20052;-36
2021/08/27 04:46:17;;;;;;;4.45;2.05;;;25.00;64.00;;;;;;5079494;28;20035;-37
2021/08/27 04:48:43;;;;;;;3.10;1.90;;;25.00;63.90;;;;;;5085301;28;20055;-36
2021/08/27 04:51:10;;;;;;;2.43;2.10;;;25.00;63.90;;;;;;5085984;28;20017;-36
2021/08/27 04:53:36;;;;;;;2.67;2.10;;;25.00;63.90;;;;;;5085752;28;20052;-36
2021/08/27 04:56:02;;;;;;;3.15;2.00;;;25.00;64.00;;;;;;5082614;28;20036;-36
2021/08/27 04:58:28;;;;;;;4.03;2.03;;;25.00;63.90;;;;;;5069908;28;20032;-36
2021/08/27 05:00:54;;;;;;;4.20;2.30;;;25.00;64.00;;;;;;5085398;28;20032;-36
2021/08/27 05:03:20;;;;;;;2.40;1.87;;;25.00;64.20;;;;;;5085770;28;20032;-36
2021/08/27 05:05:47;;;;;;;5.00;2.00;;;25.00;64.60;;;;;;5085812;28;20032;-36
2021/08/27 05:08:13;;;;;;;2.53;1.63;;;25.00;64.30;;;;;;5085579;28;20123;-36
2021/08/27 05:10:39;;;;;;;2.60;1.70;;;25.00;64.20;;;;;;5085536;28;20033;-35
2021/08/27 05:13:05;;;;;;;2.65;1.80;;;25.00;64.20;;;;;;5085358;28;20040;-36
2021/08/27 05:15:31;;;;;;;5.95;1.60;;;25.00;64.50;;;;;;5085404;28;20043;-35
2021/08/27 05:17:57;;;;;;;3.88;2.47;;;25.00;64.10;;;;;;5085511;28;20095;-36
2021/08/27 05:20:23;;;;;;;4.03;1.83;;;25.00;64.10;;;;;;5082231;28;20024;-36
2021/08/27 05:22:50;;;;;;;4.70;1.88;;;25.00;64.20;;;;;;5085651;28;20028;-36
2021/08/27 05:25:16;;;;;;;2.20;1.67;;;25.00;64.20;;;;;;5085519;28;20028;-35
2021/08/27 05:27:43;;;;;;;2.33;1.95;;;25.00;64.30;;;;;;5085046;28;20048;-36
2021/08/27 05:30:10;;;;;;;3.45;1.83;;;25.00;64.30;;;;;;5066626;28;20033;-36
2021/08/27 05:32:36;;;;;;;2.97;1.85;;;25.00;64.30;;;;;;5065303;28;20389;-36
2021/08/27 05:35:03;;;;;;;2.75;1.80;;;25.00;65.00;;;;;;5065358;28;20091;-37
2021/08/27 05:37:30;;;;;;;3.65;1.95;;;25.00;64.20;;;;;;5065250;28;20614;-36
2021/08/27 05:39:56;;;;;;;2.63;1.80;;;25.00;64.10;;;;;;5064892;28;20624;-36
2021/08/27 05:42:22;;;;;;;2.60;1.70;;;25.00;64.10;;;;;;5064894;28;20051;-36
2021/08/27 05:44:48;;;;;;;2.28;1.73;;;25.00;64.10;;;;;;5066213;28;20032;-36
2021/08/27 05:47:14;;;;;;;3.22;1.63;;;25.00;65.00;;;;;;5083731;28;20094;-36
2021/08/27 05:49:40;;;;;;;1.52;1.33;;;24.90;64.20;;;;;;5066670;28;20054;-36
2021/08/27 05:52:07;;;;;;;3.08;1.80;;;24.90;64.20;;;;;;5067002;28;20020;-36
2021/08/27 05:54:33;;;;;;;3.60;1.80;;;24.90;64.30;;;;;;5084810;28;20060;-36
2021/08/27 05:57:00;;;;;;;2.70;1.77;;;24.90;64.30;;;;;;5073408;28;20063;-36
2021/08/27 05:59:26;;;;;;;2.22;1.83;;;24.90;64.30;;;;;;5076662;28;20128;-36
2021/08/27 06:01:52;;;;;;;2.90;1.65;;;24.90;64.30;;;;;;5069887;28;20041;-35
2021/08/27 06:04:18;;;;;;;3.80;2.15;;;24.90;64.30;;;;;;5064847;28;20020;-36
2021/08/27 06:06:48;;;;;;;3.95;2.20;;;24.90;64.30;;;;;;5064753;28;20492;-36
2021/08/27 06:09:14;;;;;;;1.70;1.60;;;24.90;64.30;;;;;;5064744;28;20044;-36
2021/08/27 06:11:40;;;;;;;2.47;1.50;;;24.90;64.20;;;;;;5064504;28;20048;-36
2021/08/27 06:14:07;;;;;;;2.33;1.70;;;24.90;64.10;;;;;;5064396;28;20262;-36
2021/08/27 06:16:33;;;;;;;3.37;2.10;;;24.90;64.10;;;;;;5064475;28;20036;-36
2021/08/27 06:19:00;;;;;;;2.28;1.60;;;24.90;64.00;;;;;;5066541;28;20590;-36
2021/08/27 06:21:26;;;;;;;1.98;1.52;;;24.90;63.90;;;;;;5084276;28;20101;-36
2021/08/27 06:23:52;;;;;;;3.53;2.08;;;24.90;63.90;;;;;;5084549;28;20074;-35
2021/08/27 06:26:19;;;;;;;2.38;1.80;;;24.80;63.90;;;;;;5084139;28;20051;-36
2021/08/27 06:28:45;;;;;;;2.42;1.80;;;24.90;64.00;;;;;;5077534;28;20182;-36
2021/08/27 06:31:11;;;;;;;2.58;1.67;;;24.90;64.00;;;;;;5063976;28;20032;-36
2021/08/27 06:33:38;;;;;;;4.57;1.67;;;24.90;64.10;;;;;;5064309;28;20219;-36
2021/08/27 06:36:04;;;;;;;2.45;1.90;;;24.80;64.10;;;;;;5064250;28;20025;-35
2021/08/27 06:38:30;;;;;;;2.78;1.70;;;24.80;64.20;;;;;;5064006;28;20112;-36
2021/08/27 06:41:04;;;;;;;2.97;1.88;;;24.80;64.10;;;;;;5063940;28;20127;-36
2021/08/27 06:43:39;;;;;;;2.30;1.80;;;24.80;64.20;;;;;;5063767;28;20036;-36
2021/08/27 06:46:08;;;;;;;3.00;1.70;;;24.80;64.10;;;;;;5064019;28;20036;-35
2021/08/27 06:48:34;;;;;;;2.47;1.95;;;24.80;64.00;;;;;;5064129;28;20063;-36
2021/08/27 06:51:00;;;;;;;2.92;1.65;;;24.80;63.90;;;;;;5045935;28;20025;-36
2021/08/27 06:53:27;;;;;;;3.25;2.05;;;24.80;63.90;;;;;;5065030;28;20167;-35
2021/08/27 06:55:53;;;;;;;4.03;1.67;;;24.80;63.90;;;;;;5047855;28;20057;-36
2021/08/27 06:58:19;;;;;;;3.17;1.52;;;24.80;63.90;;;;;;5083201;28;20040;-36
2021/08/27 07:00:45;;;;;;;2.35;1.67;;;24.80;63.80;;;;;;5083501;28;20040;-36
2021/08/27 07:03:12;;;;;;;2.97;2.03;;;24.80;63.90;;;;;;5083630;28;20028;-36
2021/08/27 07:05:38;;;;;;;2.10;1.73;;;24.80;63.90;;;;;;5083652;28;20028;-36
2021/08/27 07:08:04;;;;;;;2.33;1.65;;;24.80;63.80;;;;;;5083777;28;20033;-36
2021/08/27 07:10:30;;;;;;;1.70;1.60;;;24.80;63.90;;;;;;5083230;28;20029;-35
2021/08/27 07:12:57;;;;;;;2.60;1.63;;;24.80;63.90;;;;;;5083563;28;20032;-36
2021/08/27 07:15:23;;;;;;;2.53;1.80;;;24.80;63.90;;;;;;5083549;28;20024;-36
2021/08/27 07:17:49;;;;;;;2.42;1.67;;;24.80;63.90;;;;;;5083497;28;20040;-35
2021/08/27 07:20:16;;;;;;;2.13;1.67;;;24.80;63.90;;;;;;5065548;28;20031;-36
2021/08/27 07:22:42;;;;;;;3.13;1.60;;;24.80;64.00;;;;;;5082951;28;20040;-36
2021/08/27 07:25:09;;;;;;;2.23;1.60;;;24.80;63.90;;;;;;5062343;28;20024;-36
2021/08/27 07:27:35;;;;;;;3.42;1.60;;;24.70;63.90;;;;;;5083183;28;20032;-36
2021/08/27 07:30:02;;;;;;;2.17;1.80;;;24.70;63.90;;;;;;5083371;28;20033;-36
2021/08/27 07:32:28;;;;;;;1.80;1.42;;;24.70;63.80;;;;;;5083025;28;20036;-35
2021/08/27 07:34:54;;;;;;;2.45;1.50;;;24.70;63.80;;;;;;5083201;28;20573;-36
2021/08/27 07:37:20;;;;;;;2.53;1.80;;;24.70;63.80;;;;;;5083252;28;20037;-36
2021/08/27 07:39:46;;;;;;;2.38;1.55;;;24.70;63.80;;;;;;5083140;28;20029;-36
2021/08/27 07:42:12;;;;;;;3.30;1.58;;;24.70;63.80;;;;;;5083021;28;20850;-36
2021/08/27 07:44:39;;;;;;;2.33;1.75;;;24.70;63.80;;;;;;5082907;28;20024;-36
2021/08/27 07:47:05;;;;;;;1.98;1.60;;;24.70;63.80;;;;;;5083002;28;20044;-36
2021/08/27 07:49:31;;;;;;;2.10;1.73;;;24.70;63.80;;;;;;5083144;28;20036;-36
2021/08/27 07:51:57;;;;;;;2.40;1.48;;;24.70;63.90;;;;;;5064706;28;20020;-36
2021/08/27 07:54:24;;;;;;;2.50;1.45;;;24.70;63.80;;;;;;5082723;28;20060;-36
2021/08/27 07:56:50;;;;;;;2.58;1.70;;;24.70;63.90;;;;;;5073037;28;20790;-36
2021/08/27 07:59:17;;;;;;;2.38;1.80;;;24.60;63.90;;;;;;5073727;28;20036;-36
2021/08/27 08:01:43;;;;;;;2.47;1.67;;;24.60;63.80;;;;;;5082714;28;20028;-36
2021/08/27 08:04:09;;;;;;;2.00;1.70;;;24.60;63.80;;;;;;5082763;28;20261;-36
2021/08/27 08:06:35;;;;;;;2.17;1.60;;;24.60;63.80;;;;;;5080169;28;20032;-35
2021/08/27 08:09:03;;;;;;;2.58;1.60;;;24.60;63.80;;;;;;5082163;28;20136;-36
2021/08/27 08:11:28;;;;;;;;;;;24.60;63.80;;;;;;5082904;28;20052;-36
2021/08/27 08:13:55;;;;;;;1.80;1.40;;;24.60;63.90;;;;;;5082543;28;19904;-36
2021/08/27 08:16:21;;;;;;;3.03;1.98;;;24.60;63.80;;;;;;5082547;28;20029;-36
2021/08/27 08:18:47;;;;;;;3.17;2.00;;;24.60;63.90;;;;;;5082897;28;20113;-36
2021/08/27 08:21:13;;;;;;;3.20;2.03;;;24.60;64.00;;;;;;5082251;28;20078;-35
2021/08/27 08:23:39;;;;;;;3.70;2.10;;;24.60;63.90;;;;;;5082538;28;20028;-39
2021/08/27 08:26:05;;;;;;;4.15;1.55;;;24.60;63.90;;;;;;5082516;28;20035;-36
2021/08/27 08:28:32;;;;;;;2.20;1.70;;;24.60;64.00;;;;;;5077620;28;20033;-36
2021/08/27 08:30:58;;;;;;;3.00;1.80;;;24.60;64.00;;;;;;5062332;28;20028;-35
2021/08/27 08:33:24;;;;;;;1.70;1.60;;;24.60;64.00;;;;;;5062548;28;20111;-36
2021/08/27 08:35:50;;;;;;;3.10;1.98;;;24.60;64.00;;;;;;5062465;28;20029;-35
2021/08/27 08:38:18;;;;;;;3.20;1.90;;;24.60;64.00;;;;;;5062574;28;20040;-36
2021/08/27 08:40:44;;;;;;;2.47;1.50;;;24.60;64.00;;;;;;5062140;28;20021;-36
2021/08/27 08:43:11;;;;;;;1.80;1.45;;;24.60;64.10;;;;;;5062621;28;20031;-36
2021/08/27 08:45:45;;;;;;;1.67;1.55;;;24.50;64.80;;;;;;5062299;28;20025;-36
2021/08/27 08:48:12;;;;;;;3.50;1.90;;;24.60;64.00;;;;;;5062385;28;20110;-35
2021/08/27 08:50:38;;;;;;;2.20;1.50;;;24.50;64.00;;;;;;5062173;28;20118;-36
2021/08/27 08:53:05;;;;;;;3.08;1.70;;;24.50;64.10;;;;;;5041087;28;20057;-36
2021/08/27 08:55:31;;;;;;;2.55;2.00;;;24.50;64.10;;;;;;5044210;28;20044;-37
2021/08/27 08:57:57;;;;;;;3.78;1.58;;;24.50;64.10;;;;;;5023336;28;20038;-35
2021/08/27 09:00:24;;;;;;;2.50;1.80;;;24.50;64.10;;;;;;5024119;28;20034;-36
2021/08/27 09:02:50;;;;;;;1.95;1.70;;;24.50;64.10;;;;;;5042176;28;20033;-36
2021/08/27 09:05:16;;;;;;;3.07;1.90;;;24.50;64.20;;;;;;5042256;28;20037;-36
2021/08/27 09:07:42;;;;;;;1.92;1.35;;;24.50;64.20;;;;;;5042205;28;20757;-36
2021/08/27 09:10:09;;;;;;;1.98;1.67;;;24.50;64.20;;;;;;5042316;28;20033;-35
2021/08/27 09:12:35;;;;;;;2.88;1.80;;;24.50;64.20;;;;;;5024151;28;20030;-36
2021/08/27 09:15:04;;;;;;;2.57;1.80;;;24.50;64.20;;;;;;5042241;28;20030;-35
2021/08/27 09:17:38;;;;;;;2.45;1.40;;;24.50;64.20;;;;;;5041873;28;20033;-36
2021/08/27 09:20:09;;;;;;;3.88;1.83;;;24.50;64.30;;;;;;5048412;28;20029;-36
2021/08/27 09:22:57;;;;;;;2.75;1.85;;;24.50;64.20;;;;;;5065521;28;20045;-36
2021/08/27 09:25:27;;;;;;;2.70;1.80;;;24.50;64.20;;;;;;5065601;28;20093;-36
2021/08/27 09:28:08;;;;;;;2.53;1.83;;;24.50;64.20;;;;;;5065473;28;20490;-35
2021/08/27 09:30:39;;;;;;;3.80;1.92;;;24.50;64.30;;;;;;5045560;28;20032;-35
2021/08/27 09:33:10;;;;;;;2.08;1.75;;;24.50;64.30;;;;;;5045279;28;20025;-36
2021/08/27 09:35:36;;;;;;;2.95;1.60;;;24.50;64.30;;;;;;5045525;28;20432;-36
2021/08/27 09:38:02;;;;;;;2.40;1.60;;;24.40;64.30;;;;;;5045507;28;20033;-36
2021/08/27 09:40:30;;;;;;;2.47;1.80;;;24.40;64.30;;;;;;5045514;28;20079;-36
2021/08/27 09:42:57;;;;;;;3.00;1.58;;;24.40;64.30;;;;;;5043540;28;20033;-35
2021/08/27 09:45:37;;;;;;;3.63;1.80;;;24.40;64.30;;;;;;5051336;28;20025;-36
2021/08/27 09:48:13;;;;;;;3.47;1.90;;;24.40;64.30;;;;;;5064893;28;20032;-35
2021/08/27 09:50:44;;;;;;;2.58;1.67;;;24.40;64.30;;;;;;5065023;28;20036;-36
2021/08/27 09:53:19;;;;;;;3.60;1.98;;;24.40;65.10;;;;;;5073302;28;20065;-37
2021/08/27 09:55:58;;;;;;;2.45;1.60;;;24.40;64.40;;;;;;5084016;28;20028;-36
2021/08/27 09:58:28;;;;;;;1.77;1.60;;;24.40;64.40;;;;;;5050820;28;20052;-36
2021/08/27 10:01:07;;;;;;;4.55;1.95;;;24.40;64.40;;;;;;5084140;28;20036;-36
2021/08/27 10:03:36;;;;;;;3.38;2.00;;;24.40;64.50;;;;;;5066927;28;20033;-36
2021/08/27 10:06:05;;;;;;;3.25;1.77;;;24.40;64.40;;;;;;5066945;28;20055;-35
2021/08/27 10:08:36;;;;;;;3.92;1.55;;;24.30;64.40;;;;;;5084823;28;20024;-36
2021/08/27 10:11:17;;;;;;;2.45;1.55;;;24.40;64.50;;;;;;5068345;28;20035;-36
2021/08/27 10:13:43;;;;;;;3.22;1.80;;;24.40;64.50;;;;;;5046905;28;20052;-36
2021/08/27 10:16:15;;;;;;;2.58;1.80;;;24.40;65.30;;;;;;5064353;28;20040;-36
2021/08/27 10:18:41;;;;;;;3.00;1.50;;;24.40;64.60;;;;;;5064561;28;20048;-36
2021/08/27 10:21:07;;;;;;;2.28;1.75;;;24.30;64.40;;;;;;5064547;28;20071;-36
2021/08/27 10:23:34;;;;;;;2.92;2.00;;;24.30;64.50;;;;;;5064263;28;20031;-35
2021/08/27 10:26:17;;;;;;;2.45;1.65;;;24.30;64.50;;;;;;5067498;28;20437;-36
2021/08/27 10:28:43;;;;;;;2.67;1.70;;;24.30;64.50;;;;;;5060291;28;20037;-36
2021/08/27 10:31:13;;;;;;;3.20;1.90;;;24.30;64.50;;;;;;5064390;28;20033;-36
2021/08/27 10:33:39;;;;;;;2.10;1.90;;;24.30;64.50;;;;;;5063256;28;20029;-36
2021/08/27 10:36:25;;;;;;;2.90;1.95;;;24.30;64.50;;;;;;5064443;28;20067;-36
2021/08/27 10:38:55;;;;;;;2.50;1.70;;;24.30;64.50;;;;;;5062741;28;20033;-36
2021/08/27 10:41:28;;;;;;;3.30;1.70;;;24.30;64.60;;;;;;5064215;28;20025;-35
2021/08/27 10:43:59;;;;;;;3.38;2.10;;;24.30;64.60;;;;;;5046001;28;20040;-36
2021/08/27 10:47:05;;;;;;;4.65;2.13;;;24.30;64.60;;;;;;5078655;28;20031;-36
2021/08/27 10:49:46;;;;;;;2.78;1.63;;;24.30;64.70;;;;;;4982480;28;20094;-36
2021/08/27 10:52:34;;;;;;;3.13;1.73;;;24.30;64.70;;;;;;4981823;28;20042;-36
2021/08/27 10:55:04;;;;;;;;;;;24.30;64.70;;;;;;4982802;28;20035;-36
2021/08/27 10:57:43;;;;;;;3.05;1.75;;;24.30;64.70;;;;;;4967308;28;19914;-36
2021/08/27 11:00:10;;;;;;;2.58;1.63;;;24.30;64.70;;;;;;4980522;28;20042;-35
2021/08/27 11:02:54;;;;;;;3.17;1.95;;;24.30;64.80;;;;;;4980496;28;20027;-35
2021/08/27 11:05:40;;;;;;;3.03;1.67;;;24.30;64.80;;;;;;4982341;28;20031;-35
2021/08/27 11:08:11;;;;;;;1.85;1.70;;;24.30;64.70;;;;;;4982040;28;20027;-36
2021/08/27 11:10:40;;;;;;;2.22;1.92;;;24.30;64.80;;;;;;4981968;28;20046;-36
2021/08/27 11:13:09;;;;;;;2.53;1.95;;;24.30;64.80;;;;;;4965897;28;20424;-36
2021/08/27 11:15:36;;;;;;;2.72;1.98;;;24.20;64.80;;;;;;4980286;28;20030;-36
2021/08/27 11:18:13;;;;;;;3.15;1.88;;;24.20;64.80;;;;;;4981736;28;20051;-35
2021/08/27 11:20:39;;;;;;;2.20;2.00;;;24.20;64.80;;;;;;4981873;28;20124;-35
2021/08/27 11:23:05;;;;;;;2.60;1.80;;;24.20;64.90;;;;;;4980393;28;20494;-36
2021/08/27 11:25:32;;;;;;;3.22;1.63;;;24.20;64.90;;;;;;5082582;28;20048;-36
2021/08/27 11:28:09;;;;;;;2.95;1.55;;;24.20;64.90;;;;;;5045235;28;20043;-36
2021/08/27 11:30:36;;;;;;;3.45;2.00;;;24.20;64.90;;;;;;5083101;28;20036;-36
2021/08/27 11:33:02;;;;;;;;;;;24.20;64.90;;;;;;5083270;28;20021;-36
2021/08/27 11:35:28;;;;;;;2.53;1.52;;;24.20;65.00;;;;;;5083102;28;19915;-35
2021/08/27 11:37:59;;;;;;;3.45;2.10;;;24.20;64.90;;;;;;5083093;28;20041;-36
2021/08/27 11:40:25;;;;;;;3.42;1.73;;;24.20;65.00;;;;;;5073505;28;20033;-36
2021/08/27 11:42:55;;;;;;;3.13;1.67;;;24.20;65.70;;;;;;5062626;28;20025;-36
2021/08/27 11:45:22;;;;;;;2.15;1.85;;;24.20;65.00;;;;;;5061827;28;20036;-36
2021/08/27 11:47:50;;;;;;;2.05;1.85;;;24.20;65.00;;;;;;5062748;28;20029;-36
2021/08/27 11:50:23;;;;;;;3.40;2.00;;;24.10;64.90;;;;;;5062861;28;20033;-36
2021/08/27 11:52:55;;;;;;;2.25;1.90;;;24.10;65.00;;;;;;5062298;28;20218;-36
2021/08/27 11:55:21;;;;;;;2.30;1.67;;;24.10;65.00;;;;;;5045397;28;20390;-36
2021/08/27 11:57:52;;;;;;;3.40;2.15;;;24.10;65.00;;;;;;5080519;28;20044;-36
2021/08/27 12:00:35;;;;;;;2.88;1.67;;;24.10;65.00;;;;;;5064369;28;20515;-36
2021/08/27 12:03:01;;;;;;;2.28;1.80;;;24.10;65.10;;;;;;5082426;28;20031;-35
2021/08/27 12:05:28;;;;;;;2.67;1.90;;;24.10;65.10;;;;;;5072712;28;20044;-36
2021/08/27 12:07:59;;;;;;;2.42;2.03;;;24.10;65.10;;;;;;5062564;28;20096;-35
2021/08/27 12:10:29;;;;;;;2.33;2.00;;;24.10;65.10;;;;;;5062325;28;20040;-35
2021/08/27 12:12:56;;;;;;;2.75;1.95;;;24.10;65.10;;;;;;5062350;28;20033;-37
2021/08/27 12:15:24;;;;;;;4.73;1.90;;;24.10;65.10;;;;;;5062460;28;20055;-36
2021/08/27 12:17:54;;;;;;;4.03;1.65;;;24.10;65.10;;;;;;5062179;28;20599;-36
2021/08/27 12:20:22;;;;;;;3.72;1.90;;;24.10;65.10;;;;;;5062367;28;20092;-35
2021/08/27 12:22:49;;;;;;;2.70;2.38;;;24.10;65.10;;;;;;5062250;28;20033;-35
2021/08/27 12:25:19;;;;;;;2.92;1.92;;;24.10;65.10;;;;;;5044508;28;20120;-35
2021/08/27 12:27:50;;;;;;;3.42;1.80;;;24.10;65.10;;;;;;5065255;28;20029;-35
2021/08/27 12:30:16;;;;;;;3.88;2.30;;;24.10;65.10;;;;;;5062206;28;20029;-35
2021/08/27 12:32:43;;;;;;;2.80;1.52;;;24.10;65.20;;;;;;5062015;28;20040;-36
2021/08/27 12:35:11;;;;;;;3.97;1.85;;;24.10;65.20;;;;;;5062157;28;20720;-36
2021/08/27 12:37:38;;;;;;;3.05;1.80;;;24.10;65.20;;;;;;5044473;28;20037;-36
2021/08/27 12:40:12;;;;;;;2.15;1.90;;;24.10;65.20;;;;;;5062284;28;20033;-36
2021/08/27 12:42:38;;;;;;;2.33;1.90;;;24.10;65.30;;;;;;5062209;28;20425;-36
2021/08/27 12:45:06;;;;;;;5.45;1.95;;;24.10;65.20;;;;;;5044045;28;20111;-35
2021/08/27 12:47:42;;;;;;;5.63;1.95;;;24.10;65.20;;;;;;5044533;28;20025;-36
2021/08/27 12:50:15;;;;;;;2.00;1.55;;;24.10;65.20;;;;;;5062080;28;20017;-36
2021/08/27 12:52:58;;;;;;;2.67;1.90;;;24.10;65.20;;;;;;5062050;28;20699;-36
2021/08/27 12:55:24;;;;;;;2.35;1.77;;;24.10;65.20;;;;;;5046597;28;20108;-36